Time;durP1;ratioP1;P1;durP2;ratioP2;P2;SDS_P1;SDS_P2;PMS_P1;PMS_P2;Temp;Humidity;BMP_temperature;BMP_pressure;BME280_temperature;BME280_humidity;BME280_pressure;Samples;Min_cycle;Max_cycle;Signal;HPM_P1;HPM_P2
2021/03/26 00:02:16;;;;;;;3.05;1.00;;;29.10;48.90;;;;;;5074654;28;20951;-67
2021/03/26 00:04:43;;;;;;;2.83;0.57;;;29.20;46.40;;;;;;5069813;28;20125;-67
2021/03/26 00:07:11;;;;;;;2.33;0.47;;;29.40;45.50;;;;;;5071486;28;20060;-69
2021/03/26 00:09:38;;;;;;;3.38;0.52;;;29.70;42.70;;;;;;5071802;28;20117;-68
2021/03/26 00:12:12;;;;;;;1.38;0.50;;;29.70;43.80;;;;;;5070830;28;20024;-68
2021/03/26 00:14:39;;;;;;;7.20;0.60;;;29.40;43.20;;;;;;5073224;28;20057;-70
2021/03/26 00:17:07;;;;;;;2.45;0.40;;;29.30;45.00;;;;;;5073676;28;20032;-68
2021/03/26 00:19:35;;;;;;;3.72;0.68;;;29.50;43.00;;;;;;5072919;28;20111;-68
2021/03/26 00:22:02;;;;;;;3.40;0.50;;;29.70;41.90;;;;;;5075756;28;20023;-68
2021/03/26 00:24:31;;;;;;;3.45;0.57;;;29.80;46.50;;;;;;5069338;28;20051;-68
2021/03/26 00:26:58;;;;;;;0.88;0.43;;;29.80;44.30;;;;;;5073753;28;20092;-69
2021/03/26 00:29:26;;;;;;;3.33;0.50;;;30.20;42.90;;;;;;5066031;28;20462;-68
2021/03/26 00:31:53;;;;;;;2.63;0.90;;;30.30;44.40;;;;;;5052857;28;20214;-68
2021/03/26 00:34:21;;;;;;;3.00;0.63;;;29.80;40.50;;;;;;5053780;28;20067;-69
2021/03/26 00:36:48;;;;;;;3.65;0.50;;;29.90;44.40;;;;;;5049586;28;20037;-69
2021/03/26 00:39:16;;;;;;;2.03;0.43;;;30.00;45.40;;;;;;5051562;28;20036;-69
2021/03/26 00:41:43;;;;;;;1.13;0.40;;;30.20;42.60;;;;;;5051041;28;20087;-69
2021/03/26 00:44:11;;;;;;;1.73;0.60;;;30.30;42.80;;;;;;5050244;28;20040;-67
2021/03/26 00:46:40;;;;;;;1.70;0.43;;;30.80;42.30;;;;;;5050552;28;20057;-67
2021/03/26 00:49:08;;;;;;;2.20;0.40;;;30.80;42.00;;;;;;5054943;28;20404;-67
2021/03/26 00:51:37;;;;;;;2.67;0.98;;;30.70;41.50;;;;;;5052883;28;20040;-70
2021/03/26 00:54:05;;;;;;;1.10;0.52;;;30.60;40.60;;;;;;5052854;28;20090;-69
2021/03/26 00:56:33;;;;;;;2.40;0.60;;;30.60;40.30;;;;;;5048530;28;20394;-71
2021/03/26 00:59:01;;;;;;;2.22;0.50;;;30.60;37.00;;;;;;5055262;28;20108;-69
2021/03/26 01:01:28;;;;;;;2.15;0.60;;;30.70;37.50;;;;;;5052921;28;20029;-69
2021/03/26 01:03:55;;;;;;;1.67;0.40;;;30.70;38.40;;;;;;5050868;28;20119;-67
2021/03/26 01:06:23;;;;;;;2.45;0.45;;;31.10;36.00;;;;;;5051308;28;20056;-68
2021/03/26 01:08:50;;;;;;;2.78;0.43;;;31.20;37.80;;;;;;5052873;28;20028;-69
2021/03/26 01:11:24;;;;;;;2.40;0.73;;;31.40;37.90;;;;;;5051108;28;20044;-68
2021/03/26 01:13:51;;;;;;;2.65;0.50;;;31.40;38.00;;;;;;5053265;28;20104;-68
2021/03/26 01:16:20;;;;;;;4.32;0.75;;;31.40;39.00;;;;;;5049347;28;20029;-67
2021/03/26 01:18:49;;;;;;;1.38;0.45;;;31.50;37.60;;;;;;5052769;28;20040;-68
2021/03/26 01:21:21;;;;;;;2.17;0.52;;;31.70;39.70;;;;;;5051334;28;20496;-68
2021/03/26 01:23:48;;;;;;;3.40;0.40;;;31.80;37.70;;;;;;5048988;28;20043;-67
2021/03/26 01:26:16;;;;;;;8.63;1.10;;;31.90;40.20;;;;;;5051359;28;20032;-70
2021/03/26 01:28:43;;;;;;;2.25;0.80;;;31.90;38.80;;;;;;5050872;28;20534;-71
2021/03/26 01:31:11;;;;;;;2.75;0.50;;;31.40;35.20;;;;;;5053845;28;20103;-69
2021/03/26 01:33:39;;;;;;;3.70;0.95;;;31.10;38.60;;;;;;5051496;28;20112;-68
2021/03/26 01:36:07;;;;;;;3.75;0.47;;;31.00;36.70;;;;;;5049369;28;20029;-69
2021/03/26 01:38:35;;;;;;;2.75;0.93;;;30.80;38.30;;;;;;5049460;28;20370;-68
2021/03/26 01:41:15;;;;;;;1.90;0.47;;;29.80;38.40;;;;;;5050050;28;20091;-70
2021/03/26 01:43:44;;;;;;;1.55;0.60;;;30.10;38.70;;;;;;5048472;28;20059;-70
2021/03/26 01:46:14;;;;;;;2.42;0.60;;;30.50;38.30;;;;;;5049402;28;20111;-69
2021/03/26 01:48:45;;;;;;;1.73;0.40;;;30.80;37.20;;;;;;5056874;28;20033;-70
2021/03/26 01:51:16;;;;;;;2.45;0.30;;;31.10;37.70;;;;;;5047524;28;20436;-70
2021/03/26 01:53:44;;;;;;;1.80;0.70;;;31.60;36.60;;;;;;5048135;28;20029;-70
2021/03/26 01:56:13;;;;;;;1.48;0.50;;;31.30;36.10;;;;;;5046846;28;20434;-71
2021/03/26 01:58:40;;;;;;;2.63;0.65;;;31.30;37.30;;;;;;5046932;28;20071;-71
2021/03/26 02:01:20;;;;;;;2.50;0.50;;;31.40;37.50;;;;;;5050075;28;20028;-69
2021/03/26 02:04:01;;;;;;;2.63;0.70;;;31.10;35.20;;;;;;5049460;28;20462;-70
2021/03/26 02:06:31;;;;;;;1.10;0.60;;;30.80;37.50;;;;;;5057188;28;20478;-73
2021/03/26 02:09:15;;;;;;;2.75;0.73;;;30.90;36.70;;;;;;5052607;28;20041;-73
2021/03/26 02:11:54;;;;;;;2.78;0.60;;;30.80;36.30;;;;;;5051131;28;20035;-71
2021/03/26 02:15:00;;;;;;;2.08;0.50;;;31.00;36.60;;;;;;5053067;28;20033;-68
2021/03/26 02:17:30;;;;;;;;;;;31.30;38.70;;;;;;5049850;28;20025;-71
2021/03/26 02:20:02;;;;;;;4.55;0.68;;;31.40;35.20;;;;;;5052383;28;19920;-73
2021/03/26 02:22:32;;;;;;;2.42;0.55;;;31.60;35.20;;;;;;5047313;28;20107;-71
2021/03/26 02:25:01;;;;;;;2.05;0.73;;;31.80;35.30;;;;;;5054116;28;20045;-70
2021/03/26 02:27:28;;;;;;;4.43;0.82;;;32.20;36.00;;;;;;5049693;28;20032;-68
2021/03/26 02:29:56;;;;;;;5.13;0.85;;;32.50;35.10;;;;;;5052872;28;20182;-69
2021/03/26 02:32:31;;;;;;;4.10;0.73;;;32.30;34.00;;;;;;5052646;28;20109;-69
2021/03/26 02:35:10;;;;;;;;;;;32.60;32.40;;;;;;5050159;28;20558;-71
2021/03/26 02:37:43;;;;;;;1.65;0.47;;;32.10;33.10;;;;;;5050955;28;20393;-69
2021/03/26 02:40:19;;;;;;;0.95;0.43;;;32.00;35.40;;;;;;5062995;28;20016;-69
2021/03/26 02:42:50;;;;;;;3.05;0.82;;;32.10;32.60;;;;;;5054007;28;20021;-69
2021/03/26 02:45:36;;;;;;;3.40;0.60;;;32.00;32.80;;;;;;5037988;28;20482;-68
2021/03/26 02:48:13;;;;;;;1.00;0.57;;;30.90;33.60;;;;;;5054552;28;20116;-68
2021/03/26 02:51:07;;;;;;;1.50;0.70;;;30.70;33.70;;;;;;5050829;28;20040;-69
2021/03/26 02:54:21;;;;;;;2.38;0.80;;;30.20;34.60;;;;;;5054218;28;20067;-70
2021/03/26 02:56:54;;;;;;;4.38;0.70;;;30.50;34.50;;;;;;5044703;28;20140;-69
2021/03/26 02:59:58;;;;;;;1.77;0.50;;;31.20;35.70;;;;;;5049548;28;20078;-68
2021/03/26 03:02:28;;;;;;;3.80;0.90;;;31.80;35.80;;;;;;5052168;28;20052;-70
2021/03/26 03:05:07;;;;;;;3.40;0.60;;;31.20;37.60;;;;;;5050396;28;20040;-71
2021/03/26 03:07:39;;;;;;;3.20;0.65;;;30.80;35.00;;;;;;5053551;28;20391;-71
2021/03/26 03:10:29;;;;;;;1.33;0.57;;;30.70;36.00;;;;;;5059785;28;20035;-69
2021/03/26 03:13:22;;;;;;;1.30;0.40;;;30.90;36.90;;;;;;5050486;28;20044;-70
2021/03/26 03:15:57;;;;;;;3.47;1.00;;;31.20;33.70;;;;;;5047683;28;20048;-68
2021/03/26 03:18:31;;;;;;;2.35;1.20;;;30.40;34.00;;;;;;5053938;28;20052;-69
2021/03/26 03:21:36;;;;;;;2.83;0.70;;;30.00;34.70;;;;;;5046870;28;20033;-69
2021/03/26 03:24:09;;;;;;;2.42;1.00;;;30.50;33.70;;;;;;5051809;28;20120;-69
2021/03/26 03:26:58;;;;;;;3.03;0.60;;;30.70;33.50;;;;;;5055196;28;20020;-70
2021/03/26 03:29:37;;;;;;;3.20;0.73;;;31.30;33.50;;;;;;5048005;28;20062;-67
2021/03/26 03:32:09;;;;;;;9.27;0.95;;;31.20;32.90;;;;;;5049274;28;20717;-68
2021/03/26 03:34:44;;;;;;;1.77;0.50;;;31.00;32.20;;;;;;5051131;28;20029;-67
2021/03/26 03:37:21;;;;;;;2.78;0.50;;;30.70;33.30;;;;;;5047356;28;21289;-69
2021/03/26 03:40:03;;;;;;;1.80;0.60;;;30.60;35.90;;;;;;5051394;28;20033;-69
2021/03/26 03:42:53;;;;;;;3.05;0.60;;;31.00;36.20;;;;;;5047267;28;20056;-69
2021/03/26 03:45:38;;;;;;;1.13;0.40;;;31.30;37.10;;;;;;5046433;28;20068;-68
2021/03/26 03:48:14;;;;;;;3.87;0.70;;;31.40;34.60;;;;;;5044056;28;20099;-68
2021/03/26 03:50:57;;;;;;;2.70;0.93;;;31.40;33.00;;;;;;5032683;28;20021;-68
2021/03/26 03:53:45;;;;;;;3.40;0.73;;;30.90;34.30;;;;;;5052624;28;20024;-68
2021/03/26 03:56:30;;;;;;;2.13;0.70;;;31.00;36.90;;;;;;5047500;28;20110;-69
2021/03/26 03:59:02;;;;;;;;;;;30.50;36.20;;;;;;5051015;28;20155;-70
2021/03/26 04:01:32;;;;;;;1.45;0.50;;;30.20;36.40;;;;;;5047207;28;19908;-67
2021/03/26 04:04:10;;;;;;;1.77;0.73;;;29.80;35.10;;;;;;5047846;28;20111;-68
2021/03/26 04:07:14;;;;;;;2.05;0.85;;;29.60;35.10;;;;;;5049476;28;20021;-72
2021/03/26 04:10:02;;;;;;;4.05;0.70;;;29.90;33.80;;;;;;4992832;28;20499;-71
2021/03/26 04:12:37;;;;;;;1.17;0.43;;;29.90;35.20;;;;;;5044795;28;20116;-68
2021/03/26 04:15:16;;;;;;;2.15;0.57;;;29.90;35.00;;;;;;5051046;28;20086;-69
2021/03/26 04:18:02;;;;;;;2.63;0.60;;;29.90;34.40;;;;;;5049020;28;20166;-70
2021/03/26 04:20:48;;;;;;;1.35;0.47;;;30.10;35.70;;;;;;5029633;28;20029;-70
2021/03/26 04:23:31;;;;;;;4.15;1.08;;;30.50;35.20;;;;;;5054156;28;20040;-68
2021/03/26 04:26:30;;;;;;;5.80;1.05;;;31.00;35.20;;;;;;5051183;28;21026;-69
2021/03/26 04:29:15;;;;;;;2.83;0.43;;;30.70;32.00;;;;;;5055937;28;20041;-70
2021/03/26 04:31:50;;;;;;;3.80;1.17;;;30.40;32.30;;;;;;5051917;28;20021;-70
2021/03/26 04:34:17;;;;;;;1.20;0.43;;;30.30;32.10;;;;;;5056434;28;20111;-70
2021/03/26 04:37:02;;;;;;;4.32;0.90;;;30.40;32.70;;;;;;5051985;28;20021;-70
2021/03/26 04:39:56;;;;;;;4.10;0.40;;;30.90;35.90;;;;;;5051496;28;20324;-71
2021/03/26 04:42:41;;;;;;;2.50;0.77;;;30.90;35.00;;;;;;5054666;28;20444;-75
2021/03/26 04:45:19;;;;;;;1.60;0.50;;;30.80;33.50;;;;;;5049487;28;20147;-70
2021/03/26 04:48:05;;;;;;;2.33;0.60;;;30.40;32.60;;;;;;5047883;28;20029;-71
2021/03/26 04:50:46;;;;;;;2.47;0.55;;;30.50;33.80;;;;;;5050828;28;20035;-74
2021/03/26 04:53:25;;;;;;;3.42;0.47;;;29.90;32.80;;;;;;5050693;28;20033;-72
2021/03/26 04:55:58;;;;;;;4.57;0.90;;;29.80;36.70;;;;;;5053077;28;20086;-72
2021/03/26 04:58:34;;;;;;;1.17;0.47;;;30.10;34.80;;;;;;5053260;28;20107;-70
2021/03/26 05:01:14;;;;;;;4.90;1.25;;;30.10;34.50;;;;;;5052442;28;20132;-71
2021/03/26 05:04:06;;;;;;;5.15;0.88;;;29.70;39.00;;;;;;5052698;28;20035;-69
2021/03/26 05:06:43;;;;;;;6.40;0.98;;;29.80;40.30;;;;;;5034845;28;20028;-68
2021/03/26 05:09:19;;;;;;;5.60;0.93;;;29.70;40.90;;;;;;5050045;28;20020;-69
2021/03/26 05:11:51;;;;;;;2.97;0.65;;;29.60;42.50;;;;;;5053151;28;20076;-68
2021/03/26 05:15:04;;;;;;;3.65;0.70;;;29.30;45.80;;;;;;5058126;28;20025;-71
2021/03/26 05:17:44;;;;;;;6.75;1.13;;;29.00;47.70;;;;;;5055976;28;20037;-69
2021/03/26 05:20:25;;;;;;;5.05;1.17;;;28.80;48.50;;;;;;5052290;28;20024;-71
2021/03/26 05:23:07;;;;;;;4.82;0.93;;;28.60;48.20;;;;;;5050167;28;20084;-68
2021/03/26 05:25:40;;;;;;;4.63;1.33;;;27.90;49.00;;;;;;5052961;28;20032;-70
2021/03/26 05:28:16;;;;;;;3.50;0.65;;;27.40;50.80;;;;;;5050955;28;20021;-69
2021/03/26 05:30:46;;;;;;;3.30;0.98;;;27.10;50.60;;;;;;5056177;28;20056;-69
2021/03/26 05:33:38;;;;;;;4.70;0.90;;;27.30;50.50;;;;;;5054134;28;20450;-69
2021/03/26 05:36:16;;;;;;;5.78;1.35;;;27.60;50.00;;;;;;5061319;28;20102;-70
2021/03/26 05:38:53;;;;;;;3.53;0.88;;;27.60;50.60;;;;;;5053019;28;20085;-71
2021/03/26 05:41:27;;;;;;;5.53;1.23;;;27.80;51.30;;;;;;5052944;28;21340;-70
2021/03/26 05:44:12;;;;;;;4.35;0.85;;;27.80;50.20;;;;;;5057767;28;20045;-68
2021/03/26 05:47:00;;;;;;;5.28;1.15;;;27.80;50.20;;;;;;5056620;28;20071;-67
2021/03/26 05:49:50;;;;;;;6.53;1.13;;;27.60;49.40;;;;;;5055202;28;20046;-70
2021/03/26 05:52:35;;;;;;;4.90;0.95;;;27.40;50.90;;;;;;5055292;28;20052;-71
2021/03/26 05:55:59;;;;;;;3.47;1.20;;;27.10;53.30;;;;;;5054977;28;20059;-68
2021/03/26 05:58:45;;;;;;;3.58;0.80;;;26.90;53.60;;;;;;4974571;28;20031;-68
2021/03/26 06:01:26;;;;;;;3.65;1.20;;;26.90;54.30;;;;;;4980857;28;20039;-68
2021/03/26 06:04:29;;;;;;;7.45;2.35;;;26.70;54.60;;;;;;5039426;28;20037;-68
2021/03/26 06:07:24;;;;;;;5.28;1.05;;;26.70;55.50;;;;;;5053400;28;20037;-68
2021/03/26 06:10:35;;;;;;;5.72;0.95;;;26.60;56.10;;;;;;5053296;28;20439;-71
2021/03/26 06:13:28;;;;;;;3.28;1.27;;;26.60;55.90;;;;;;5051579;28;20025;-70
2021/03/26 06:16:13;;;;;;;6.38;1.33;;;26.60;56.30;;;;;;5057215;28;20168;-68
2021/03/26 06:19:08;;;;;;;4.60;1.33;;;26.50;57.30;;;;;;5050523;28;20036;-68
2021/03/26 06:22:06;;;;;;;6.03;1.02;;;26.50;57.60;;;;;;5046406;28;20052;-72
2021/03/26 06:24:54;;;;;;;3.00;0.80;;;26.50;56.90;;;;;;5053906;28;20387;-68
2021/03/26 06:27:56;;;;;;;5.10;0.77;;;26.50;56.90;;;;;;5052130;28;20025;-73
2021/03/26 06:30:26;;;;;;;3.67;1.10;;;26.70;56.60;;;;;;5057036;28;20056;-68
2021/03/26 06:32:54;;;;;;;3.67;0.90;;;26.40;57.10;;;;;;5057363;28;20058;-68
2021/03/26 06:35:45;;;;;;;3.60;0.80;;;26.30;58.00;;;;;;5050210;28;20028;-68
2021/03/26 06:38:31;;;;;;;7.00;1.05;;;26.10;58.30;;;;;;5051064;28;20571;-69
2021/03/26 06:41:23;;;;;;;4.90;1.13;;;26.10;59.40;;;;;;5047900;28;20028;-70
2021/03/26 06:44:24;;;;;;;5.50;1.13;;;26.00;60.40;;;;;;5051025;28;20035;-68
2021/03/26 06:47:00;;;;;;;4.10;0.80;;;25.80;60.50;;;;;;5051774;28;20059;-70
2021/03/26 06:49:44;;;;;;;7.35;1.27;;;25.70;60.90;;;;;;5051411;28;20108;-69
2021/03/26 06:52:18;;;;;;;2.63;0.77;;;25.50;61.40;;;;;;5049109;28;20036;-69
2021/03/26 06:55:26;;;;;;;4.28;1.00;;;25.20;62.20;;;;;;5046470;28;20079;-69
2021/03/26 06:58:23;;;;;;;4.72;1.00;;;25.20;63.40;;;;;;5053031;28;20033;-71
2021/03/26 07:01:05;;;;;;;4.05;0.93;;;25.10;62.90;;;;;;5051197;28;21729;-72
2021/03/26 07:03:50;;;;;;;4.00;0.90;;;25.10;62.80;;;;;;5049161;28;20495;-69
2021/03/26 07:06:40;;;;;;;3.95;1.23;;;25.00;63.20;;;;;;5047967;28;20178;-69
2021/03/26 07:09:37;;;;;;;5.25;0.95;;;24.90;64.20;;;;;;5048415;28;20028;-69
2021/03/26 07:12:18;;;;;;;5.15;1.15;;;24.70;64.70;;;;;;5028725;28;20037;-70
2021/03/26 07:15:15;;;;;;;3.20;0.93;;;24.50;66.10;;;;;;5047845;28;21650;-69
2021/03/26 07:18:16;;;;;;;7.28;1.08;;;24.50;66.20;;;;;;5032194;28;20041;-69
2021/03/26 07:21:21;;;;;;;4.72;0.65;;;24.40;65.90;;;;;;5032461;28;20052;-68
2021/03/26 07:23:57;;;;;;;6.35;1.10;;;24.40;66.40;;;;;;5046353;28;20383;-70
2021/03/26 07:26:31;;;;;;;11.05;1.73;;;24.40;66.40;;;;;;5041969;28;20127;-70
2021/03/26 07:29:28;;;;;;;7.78;1.27;;;24.30;66.50;;;;;;5048232;28;20539;-68
2021/03/26 07:32:22;;;;;;;4.10;1.00;;;24.20;66.90;;;;;;5046171;28;20029;-68
2021/03/26 07:35:15;;;;;;;2.72;1.00;;;24.10;67.10;;;;;;5041987;28;20067;-69
2021/03/26 07:38:10;;;;;;;6.78;1.20;;;23.90;67.70;;;;;;5045616;28;20040;-70
2021/03/26 07:40:46;;;;;;;5.50;1.80;;;23.80;68.50;;;;;;5037156;28;20111;-68
2021/03/26 07:43:38;;;;;;;;;;;23.70;68.90;;;;;;5050938;28;20485;-68
2021/03/26 07:46:26;;;;;;;4.22;1.00;;;23.60;69.20;;;;;;5053376;28;19917;-69
2021/03/26 07:49:03;;;;;;;4.13;0.93;;;23.50;69.40;;;;;;5051202;28;20024;-69
2021/03/26 07:51:56;;;;;;;7.50;1.08;;;23.40;70.10;;;;;;5053000;28;20047;-69
2021/03/26 07:54:42;;;;;;;4.72;1.08;;;23.40;70.70;;;;;;5046734;28;20021;-68
2021/03/26 07:57:24;;;;;;;5.40;1.38;;;23.30;71.00;;;;;;5049844;28;20037;-68
2021/03/26 08:00:13;;;;;;;5.03;1.60;;;23.20;71.30;;;;;;5034245;28;20090;-68
2021/03/26 08:03:09;;;;;;;4.80;1.00;;;23.10;71.80;;;;;;5054181;28;20048;-69
2021/03/26 08:05:36;;;;;;;;;;;23.00;72.20;;;;;;5041193;28;20045;-68
2021/03/26 08:08:24;;;;;;;6.70;1.40;;;23.00;72.30;;;;;;5055289;28;20023;-70
2021/03/26 08:11:30;;;;;;;5.97;1.55;;;23.10;72.50;;;;;;5055365;28;21556;-71
2021/03/26 08:14:22;;;;;;;4.95;1.52;;;22.90;72.30;;;;;;5003426;28;20052;-69
2021/03/26 08:17:07;;;;;;;5.20;1.08;;;22.90;72.70;;;;;;5059123;28;20021;-69
2021/03/26 08:19:47;;;;;;;3.47;1.13;;;22.90;72.20;;;;;;5055870;28;20039;-71
2021/03/26 08:22:23;;;;;;;4.55;1.13;;;22.90;72.30;;;;;;5054662;28;20040;-68
2021/03/26 08:25:23;;;;;;;5.43;0.80;;;22.80;72.70;;;;;;5055494;28;20036;-69
2021/03/26 08:28:15;;;;;;;4.25;1.15;;;22.80;73.10;;;;;;5057178;28;20031;-69
2021/03/26 08:31:15;;;;;;;8.07;1.25;;;22.80;73.20;;;;;;5066262;28;20041;-70
2021/03/26 08:34:07;;;;;;;4.32;0.95;;;22.60;73.80;;;;;;5073229;28;20115;-69
2021/03/26 08:36:42;;;;;;;4.45;0.88;;;22.60;73.70;;;;;;5073760;28;20032;-68
2021/03/26 08:39:27;;;;;;;6.35;1.60;;;22.60;73.70;;;;;;5074586;28;20119;-69
2021/03/26 08:42:18;;;;;;;4.00;1.80;;;22.40;74.00;;;;;;5076721;28;20028;-68
2021/03/26 08:45:11;;;;;;;6.30;1.13;;;22.30;74.40;;;;;;5067440;28;20044;-68
2021/03/26 08:48:04;;;;;;;5.95;0.70;;;22.00;75.60;;;;;;5048383;28;20471;-68
2021/03/26 08:50:59;;;;;;;9.35;1.15;;;21.90;75.80;;;;;;5072718;28;20036;-67
2021/03/26 08:53:55;;;;;;;8.57;1.38;;;21.90;75.90;;;;;;5074887;28;20027;-68
2021/03/26 08:56:32;;;;;;;11.57;2.80;;;21.80;76.40;;;;;;5043496;28;20506;-69
2021/03/26 08:59:05;;;;;;;10.13;1.95;;;21.50;78.00;;;;;;5072638;28;20115;-67
2021/03/26 09:01:55;;;;;;;16.45;1.90;;;21.50;77.90;;;;;;5077617;28;20423;-67
2021/03/26 09:05:15;;;;;;;9.45;1.48;;;21.20;78.50;;;;;;5037844;28;20490;-69
2021/03/26 09:08:09;;;;;;;5.53;1.48;;;21.20;78.80;;;;;;5013311;28;20495;-68
2021/03/26 09:11:07;;;;;;;6.35;1.42;;;21.20;79.00;;;;;;5075514;28;20146;-68
2021/03/26 09:14:05;;;;;;;4.20;0.68;;;21.20;78.80;;;;;;5065708;28;20394;-66
2021/03/26 09:17:20;;;;;;;7.28;1.00;;;21.20;78.70;;;;;;5078035;28;20020;-69
2021/03/26 09:20:16;;;;;;;4.20;1.33;;;21.20;79.20;;;;;;5070119;28;20344;-69
2021/03/26 09:32:55;;;;;;;5.65;1.42;;;21.00;80.50;;;;;;5050638;28;20032;-68
2021/03/26 09:35:38;;;;;;;5.28;1.38;;;20.80;81.10;;;;;;5052490;28;20020;-68
2021/03/26 09:38:14;;;;;;;6.15;1.63;;;20.90;81.50;;;;;;5035938;28;21162;-69
2021/03/26 09:41:02;;;;;;;6.30;1.83;;;20.80;82.20;;;;;;5047926;28;20033;-68
2021/03/26 09:43:49;;;;;;;6.57;1.25;;;20.80;82.20;;;;;;5058241;28;20479;-68
2021/03/26 09:46:49;;;;;;;3.55;1.65;;;20.70;82.70;;;;;;5051986;28;20456;-70
2021/03/26 09:49:22;;;;;;;9.95;2.75;;;20.80;83.00;;;;;;5044939;28;20037;-67
2021/03/26 09:51:54;;;;;;;6.50;2.30;;;20.80;82.90;;;;;;5058143;28;20098;-67
2021/03/26 09:54:35;;;;;;;8.18;2.88;;;20.80;82.70;;;;;;5049237;28;20074;-69
2021/03/26 09:57:21;;;;;;;7.55;2.85;;;20.80;82.90;;;;;;5054431;28;20475;-67
2021/03/26 10:00:18;;;;;;;6.15;2.72;;;20.70;83.40;;;;;;5052041;28;20040;-67
2021/03/26 10:03:03;;;;;;;5.25;2.15;;;20.70;83.30;;;;;;5059664;28;20138;-68
2021/03/26 10:06:04;;;;;;;8.32;2.05;;;20.60;83.60;;;;;;5052049;28;20044;-68
2021/03/26 10:11:52;;;;;;;7.18;1.33;;;20.60;84.00;;;;;;5053331;28;20055;-67
2021/03/26 10:14:27;;;;;;;4.88;2.22;;;20.60;84.20;;;;;;5054518;28;20033;-67
2021/03/26 10:17:19;;;;;;;8.68;1.08;;;20.60;84.20;;;;;;5051999;28;20111;-69
2021/03/26 10:19:56;;;;;;;5.80;1.65;;;20.60;84.20;;;;;;5057966;28;20154;-67
2021/03/26 10:22:44;;;;;;;5.65;1.55;;;20.60;84.00;;;;;;5060344;28;20372;-67
2021/03/26 10:25:36;;;;;;;7.38;1.65;;;20.60;84.30;;;;;;5050900;28;20032;-67
2021/03/26 10:28:18;;;;;;;4.35;1.52;;;20.50;84.60;;;;;;5054350;28;20025;-66
2021/03/26 10:30:50;;;;;;;5.80;1.60;;;20.50;84.80;;;;;;5050527;28;20048;-67
2021/03/26 10:33:20;;;;;;;7.47;2.35;;;20.50;84.80;;;;;;5051736;28;20072;-68
2021/03/26 10:36:16;;;;;;;9.25;1.80;;;20.50;84.90;;;;;;5047532;28;20035;-67
2021/03/26 10:38:56;;;;;;;5.28;1.42;;;20.40;85.20;;;;;;5053659;28;20036;-67
2021/03/26 10:41:35;;;;;;;7.70;2.22;;;20.40;85.40;;;;;;5048931;28;20047;-68
2021/03/26 10:44:12;;;;;;;7.65;1.48;;;20.40;85.40;;;;;;5048300;28;20547;-68
2021/03/26 10:46:44;;;;;;;6.30;1.90;;;20.30;85.50;;;;;;5051937;28;20040;-68
2021/03/26 10:49:32;;;;;;;8.15;1.60;;;20.40;85.80;;;;;;5053529;28;20120;-67
2021/03/26 10:52:53;;;;;;;4.60;1.23;;;20.30;86.10;;;;;;5054500;28;20039;-68
2021/03/26 10:55:27;;;;;;;5.13;1.40;;;20.30;86.00;;;;;;4991214;28;20057;-67
2021/03/26 10:58:48;;;;;;;5.07;1.25;;;20.20;86.50;;;;;;4991765;28;20029;-68
2021/03/26 11:01:21;;;;;;;4.30;1.27;;;20.20;87.00;;;;;;4993720;28;20040;-68
2021/03/26 11:04:05;;;;;;;6.50;1.67;;;20.20;87.00;;;;;;4994957;28;20626;-68
2021/03/26 11:07:07;;;;;;;7.60;1.63;;;20.30;86.60;;;;;;4994777;28;20628;-67
2021/03/26 11:09:45;;;;;;;5.35;1.75;;;20.30;86.60;;;;;;4987450;28;20355;-70
2021/03/26 11:12:37;;;;;;;6.95;1.42;;;20.20;86.90;;;;;;5015064;28;20040;-66
2021/03/26 11:15:07;;;;;;;7.72;1.67;;;20.20;87.00;;;;;;5055372;28;20028;-68
2021/03/26 11:17:40;;;;;;;6.40;1.88;;;20.10;86.30;;;;;;5060337;28;20428;-69
2021/03/26 11:20:32;;;;;;;6.07;1.67;;;20.10;87.20;;;;;;5052794;28;20305;-69
2021/03/26 11:23:17;;;;;;;8.23;1.98;;;20.10;87.00;;;;;;5053007;28;20024;-71
2021/03/26 11:25:52;;;;;;;6.07;1.90;;;20.00;87.00;;;;;;5051615;28;20036;-69
2021/03/26 11:28:48;;;;;;;5.15;2.85;;;20.00;87.90;;;;;;5050289;28;20443;-69
2021/03/26 11:31:50;;;;;;;6.60;2.70;;;20.00;88.10;;;;;;5045567;28;20055;-68
2021/03/26 11:34:44;;;;;;;7.50;2.63;;;19.90;87.60;;;;;;5056686;28;20324;-69
2021/03/26 11:37:29;;;;;;;4.70;2.35;;;19.90;88.00;;;;;;5060389;28;20405;-68
2021/03/26 11:40:28;;;;;;;5.97;2.25;;;19.80;88.30;;;;;;5051731;28;21105;-68
2021/03/26 11:43:15;;;;;;;7.47;3.45;;;19.80;88.90;;;;;;5063560;28;20116;-68
2021/03/26 11:46:23;;;;;;;6.43;2.45;;;19.80;89.10;;;;;;5056271;28;20466;-68
2021/03/26 11:48:51;;;;;;;11.93;2.35;;;19.80;89.00;;;;;;5051906;28;20119;-69
2021/03/26 11:51:48;;;;;;;7.72;2.92;;;19.80;89.20;;;;;;5058967;28;20456;-69
2021/03/26 11:54:34;;;;;;;11.60;3.50;;;19.70;89.30;;;;;;5054743;28;20043;-71
2021/03/26 11:57:27;;;;;;;7.45;3.28;;;19.80;89.00;;;;;;5055810;28;20119;-69
2021/03/26 11:59:57;;;;;;;10.35;3.15;;;19.80;88.40;;;;;;5055846;28;20020;-71
2021/03/26 12:02:36;;;;;;;5.50;2.42;;;19.90;88.40;;;;;;5056916;28;20553;-70
2021/03/26 12:05:10;;;;;;;9.30;2.30;;;19.90;88.40;;;;;;5053131;28;20037;-68
2021/03/26 12:07:41;;;;;;;10.18;4.40;;;19.90;88.50;;;;;;5062411;28;20475;-68
2021/03/26 12:10:11;;;;;;;9.68;2.88;;;19.80;88.70;;;;;;5052238;28;20056;-70
2021/03/26 12:12:53;;;;;;;10.93;3.47;;;19.90;88.50;;;;;;5056545;28;20134;-69
2021/03/26 12:15:28;;;;;;;7.88;3.42;;;19.80;88.70;;;;;;5051396;28;20032;-70
2021/03/26 12:18:31;;;;;;;7.47;2.22;;;19.80;88.50;;;;;;5052552;28;20569;-70
2021/03/26 12:21:43;;;;;;;7.68;2.38;;;19.90;88.60;;;;;;5034497;28;20348;-68
2021/03/26 12:24:34;;;;;;;5.05;1.55;;;19.80;88.70;;;;;;5006183;28;20036;-69
2021/03/26 12:27:45;;;;;;;5.90;1.48;;;19.70;89.00;;;;;;5056414;28;20383;-69
2021/03/26 12:30:50;;;;;;;6.43;2.03;;;19.60;89.40;;;;;;5012564;28;20048;-68
2021/03/26 12:33:26;;;;;;;5.35;2.38;;;19.60;89.30;;;;;;5016251;28;20044;-68
2021/03/26 12:35:57;;;;;;;7.63;1.77;;;19.60;89.60;;;;;;5068447;28;20041;-69
2021/03/26 12:38:54;;;;;;;5.10;2.17;;;19.50;90.10;;;;;;5072090;28;20110;-68
2021/03/26 12:42:00;;;;;;;6.15;2.15;;;19.50;90.20;;;;;;5073709;28;20060;-70
2021/03/26 12:44:34;;;;;;;3.45;1.50;;;19.50;90.40;;;;;;5063260;28;20056;-70
2021/03/26 12:47:20;;;;;;;4.57;1.75;;;19.40;90.40;;;;;;5078469;28;20489;-70
2021/03/26 12:49:54;;;;;;;3.83;1.90;;;19.40;90.50;;;;;;5080687;28;20036;-71
2021/03/26 12:52:33;;;;;;;4.93;1.75;;;19.30;90.20;;;;;;5078644;28;20036;-70
2021/03/26 12:55:25;;;;;;;6.07;1.55;;;19.30;90.40;;;;;;5081241;28;20030;-70
2021/03/26 12:58:08;;;;;;;4.93;1.60;;;19.30;90.70;;;;;;5073580;28;20024;-70
2021/03/26 13:00:53;;;;;;;6.38;1.63;;;19.30;90.80;;;;;;5078853;28;20354;-70
2021/03/26 13:03:43;;;;;;;4.75;1.48;;;19.30;90.80;;;;;;5072748;28;20077;-70
2021/03/26 13:06:33;;;;;;;7.30;2.42;;;19.40;90.60;;;;;;5077860;28;20414;-70
2021/03/26 13:09:19;;;;;;;5.43;1.35;;;19.40;90.40;;;;;;5079636;28;20390;-70
2021/03/26 13:11:53;;;;;;;7.30;1.73;;;19.50;90.20;;;;;;5078698;28;20053;-70
2021/03/26 13:14:32;;;;;;;8.00;2.65;;;19.40;90.20;;;;;;5077204;28;20056;-71
2021/03/26 13:17:03;;;;;;;7.07;2.25;;;19.40;90.30;;;;;;5078036;28;20025;-70
2021/03/26 13:19:36;;;;;;;7.07;2.28;;;19.40;90.40;;;;;;5078624;28;20039;-69
2021/03/26 13:22:14;;;;;;;7.93;2.38;;;19.40;90.50;;;;;;5077118;28;20384;-68
2021/03/26 13:25:11;;;;;;;7.57;1.73;;;19.30;90.50;;;;;;5075542;28;20041;-70
2021/03/26 13:27:57;;;;;;;7.93;2.20;;;19.30;90.60;;;;;;5074358;28;20024;-72
2021/03/26 13:30:35;;;;;;;7.63;2.50;;;19.30;90.70;;;;;;5066340;28;20049;-70
2021/03/26 13:33:11;;;;;;;4.30;1.60;;;19.30;90.80;;;;;;5050312;28;20048;-68
2021/03/26 13:36:13;;;;;;;4.90;2.47;;;19.30;90.70;;;;;;5062885;28;20030;-68
2021/03/26 13:38:41;;;;;;;6.65;1.77;;;19.30;90.50;;;;;;5057582;28;20036;-68
2021/03/26 13:41:23;;;;;;;7.72;1.70;;;19.30;90.50;;;;;;5052038;28;20119;-70
2021/03/26 13:44:14;;;;;;;8.52;1.95;;;19.30;90.50;;;;;;5061403;28;20057;-69
2021/03/26 13:46:47;;;;;;;9.43;2.17;;;19.20;90.60;;;;;;5056951;28;20021;-68
2021/03/26 13:49:25;;;;;;;8.45;2.63;;;19.20;90.80;;;;;;5057398;28;20037;-68
2021/03/26 13:51:59;;;;;;;12.00;2.58;;;19.20;90.90;;;;;;5052226;28;20021;-70
2021/03/26 13:54:43;;;;;;;7.35;2.53;;;19.10;91.00;;;;;;5055028;28;20025;-68
2021/03/26 13:57:35;;;;;;;7.90;2.25;;;19.10;91.30;;;;;;5053429;28;20025;-69
2021/03/26 14:00:26;;;;;;;10.75;2.72;;;19.00;91.60;;;;;;5061107;28;20039;-68
2021/03/26 14:03:06;;;;;;;11.05;2.72;;;19.00;91.40;;;;;;5065848;28;20328;-68
2021/03/26 14:05:46;;;;;;;7.60;2.15;;;19.10;91.80;;;;;;5055890;28;20130;-69
2021/03/26 14:08:43;;;;;;;6.50;2.08;;;19.10;91.60;;;;;;5060181;28;20113;-68
2021/03/26 14:11:22;;;;;;;7.53;2.38;;;19.00;91.70;;;;;;5051488;28;20056;-68
2021/03/26 14:14:10;;;;;;;6.28;1.90;;;19.00;91.50;;;;;;5061310;28;20542;-70
2021/03/26 14:16:51;;;;;;;7.70;2.20;;;19.00;91.50;;;;;;5053168;28;20060;-69
2021/03/26 14:19:43;;;;;;;5.97;2.38;;;19.00;91.40;;;;;;5052403;28;20033;-71
2021/03/26 14:22:26;;;;;;;8.52;2.55;;;19.00;91.70;;;;;;5056927;28;20416;-69